sensor_id;sensor_type;location;lat;lon;timestamp;P1;durP1;ratioP1;P2;durP2;ratioP2
18407;SDS011;9330;52.210;21.174;2022-12-01T00:00:09;18.52;;;12.55;;
18407;SDS011;9330;52.210;21.174;2022-12-01T00:02:37;14.23;;;11.23;;
18407;SDS011;9330;52.210;21.174;2022-12-01T00:05:04;15.73;;;11.93;;
18407;SDS011;9330;52.210;21.174;2022-12-01T00:07:33;18.08;;;13.50;;
18407;SDS011;9330;52.210;21.174;2022-12-01T00:10:00;17.65;;;12.15;;
18407;SDS011;9330;52.210;21.174;2022-12-01T00:12:44;17.48;;;12.95;;
18407;SDS011;9330;52.210;21.174;2022-12-01T00:15:11;17.17;;;12.32;;
18407;SDS011;9330;52.210;21.174;2022-12-01T00:17:38;18.10;;;13.20;;
18407;SDS011;9330;52.210;21.174;2022-12-01T00:20:09;16.00;;;13.05;;
18407;SDS011;9330;52.210;21.174;2022-12-01T00:22:38;16.88;;;13.07;;
18407;SDS011;9330;52.210;21.174;2022-12-01T00:25:08;17.10;;;12.52;;
18407;SDS011;9330;52.210;21.174;2022-12-01T00:27:35;17.25;;;13.23;;
18407;SDS011;9330;52.210;21.174;2022-12-01T00:30:03;17.45;;;13.60;;
18407;SDS011;9330;52.210;21.174;2022-12-01T00:32:31;16.00;;;11.98;;
18407;SDS011;9330;52.210;21.174;2022-12-01T00:34:58;16.05;;;12.73;;
18407;SDS011;9330;52.210;21.174;2022-12-01T00:37:25;17.50;;;13.80;;
18407;SDS011;9330;52.210;21.174;2022-12-01T00:39:53;19.23;;;14.27;;
18407;SDS011;9330;52.210;21.174;2022-12-01T00:42:20;16.83;;;12.45;;
18407;SDS011;9330;52.210;21.174;2022-12-01T00:44:47;16.38;;;12.60;;
18407;SDS011;9330;52.210;21.174;2022-12-01T00:47:14;19.80;;;13.82;;
18407;SDS011;9330;52.210;21.174;2022-12-01T00:49:41;17.17;;;12.60;;
18407;SDS011;9330;52.210;21.174;2022-12-01T00:52:09;16.48;;;13.60;;
18407;SDS011;9330;52.210;21.174;2022-12-01T00:54:37;17.67;;;13.45;;
18407;SDS011;9330;52.210;21.174;2022-12-01T00:57:05;17.20;;;12.95;;
18407;SDS011;9330;52.210;21.174;2022-12-01T00:59:33;18.95;;;13.68;;
18407;SDS011;9330;52.210;21.174;2022-12-01T01:02:00;15.85;;;13.13;;
18407;SDS011;9330;52.210;21.174;2022-12-01T01:04:28;16.05;;;13.00;;
18407;SDS011;9330;52.210;21.174;2022-12-01T01:06:55;17.10;;;12.85;;
18407;SDS011;9330;52.210;21.174;2022-12-01T01:09:22;16.80;;;12.82;;
18407;SDS011;9330;52.210;21.174;2022-12-01T01:11:50;19.02;;;14.40;;
18407;SDS011;9330;52.210;21.174;2022-12-01T01:14:18;18.60;;;13.55;;
18407;SDS011;9330;52.210;21.174;2022-12-01T01:16:45;17.95;;;12.88;;
18407;SDS011;9330;52.210;21.174;2022-12-01T01:19:12;17.73;;;13.48;;
18407;SDS011;9330;52.210;21.174;2022-12-01T01:21:39;17.30;;;12.88;;
18407;SDS011;9330;52.210;21.174;2022-12-01T01:24:06;17.15;;;13.60;;
18407;SDS011;9330;52.210;21.174;2022-12-01T01:26:33;19.20;;;14.82;;
18407;SDS011;9330;52.210;21.174;2022-12-01T01:29:02;19.02;;;14.13;;
18407;SDS011;9330;52.210;21.174;2022-12-01T01:31:31;17.52;;;14.00;;
18407;SDS011;9330;52.210;21.174;2022-12-01T01:33:59;17.08;;;13.13;;
18407;SDS011;9330;52.210;21.174;2022-12-01T01:36:26;18.75;;;13.85;;
18407;SDS011;9330;52.210;21.174;2022-12-01T01:38:53;16.92;;;13.23;;
18407;SDS011;9330;52.210;21.174;2022-12-01T01:41:20;17.25;;;13.30;;
18407;SDS011;9330;52.210;21.174;2022-12-01T01:43:48;16.10;;;12.85;;
18407;SDS011;9330;52.210;21.174;2022-12-01T01:46:17;18.20;;;14.60;;
18407;SDS011;9330;52.210;21.174;2022-12-01T01:48:47;18.80;;;14.65;;
18407;SDS011;9330;52.210;21.174;2022-12-01T01:51:18;21.73;;;14.75;;
18407;SDS011;9330;52.210;21.174;2022-12-01T01:53:47;19.42;;;14.30;;
18407;SDS011;9330;52.210;21.174;2022-12-01T01:56:17;18.30;;;14.52;;
18407;SDS011;9330;52.210;21.174;2022-12-01T01:58:44;18.15;;;14.05;;
18407;SDS011;9330;52.210;21.174;2022-12-01T02:01:12;18.52;;;14.82;;
18407;SDS011;9330;52.210;21.174;2022-12-01T02:03:39;19.98;;;15.15;;
18407;SDS011;9330;52.210;21.174;2022-12-01T02:06:08;18.15;;;14.13;;
18407;SDS011;9330;52.210;21.174;2022-12-01T02:08:36;18.50;;;14.25;;
18407;SDS011;9330;52.210;21.174;2022-12-01T02:14:18;21.23;;;16.08;;
18407;SDS011;9330;52.210;21.174;2022-12-01T02:16:55;19.10;;;15.05;;
18407;SDS011;9330;52.210;21.174;2022-12-01T02:19:39;20.38;;;15.65;;
18407;SDS011;9330;52.210;21.174;2022-12-01T02:22:20;18.95;;;15.13;;
18407;SDS011;9330;52.210;21.174;2022-12-01T02:24:59;20.33;;;15.65;;
18407;SDS011;9330;52.210;21.174;2022-12-01T02:27:48;20.08;;;16.45;;
18407;SDS011;9330;52.210;21.174;2022-12-01T02:30:36;20.55;;;15.30;;
18407;SDS011;9330;52.210;21.174;2022-12-01T02:33:06;20.38;;;15.25;;
18407;SDS011;9330;52.210;21.174;2022-12-01T02:35:42;19.48;;;15.18;;
18407;SDS011;9330;52.210;21.174;2022-12-01T02:38:16;23.45;;;16.52;;
18407;SDS011;9330;52.210;21.174;2022-12-01T02:40:51;18.75;;;14.68;;
18407;SDS011;9330;52.210;21.174;2022-12-01T02:43:24;18.73;;;14.73;;
18407;SDS011;9330;52.210;21.174;2022-12-01T02:45:56;20.45;;;15.70;;
18407;SDS011;9330;52.210;21.174;2022-12-01T02:48:28;19.02;;;14.68;;
18407;SDS011;9330;52.210;21.174;2022-12-01T02:50:59;21.02;;;15.43;;
18407;SDS011;9330;52.210;21.174;2022-12-01T02:53:31;22.35;;;16.65;;
18407;SDS011;9330;52.210;21.174;2022-12-01T02:55:59;24.08;;;17.95;;
18407;SDS011;9330;52.210;21.174;2022-12-01T02:58:30;24.13;;;17.25;;
18407;SDS011;9330;52.210;21.174;2022-12-01T03:01:04;22.60;;;16.90;;
18407;SDS011;9330;52.210;21.174;2022-12-01T03:03:58;21.77;;;16.55;;
18407;SDS011;9330;52.210;21.174;2022-12-01T03:06:34;21.45;;;17.42;;
18407;SDS011;9330;52.210;21.174;2022-12-01T03:09:07;23.83;;;17.08;;
18407;SDS011;9330;52.210;21.174;2022-12-01T03:11:44;21.50;;;16.67;;
18407;SDS011;9330;52.210;21.174;2022-12-01T03:14:28;23.17;;;17.30;;
18407;SDS011;9330;52.210;21.174;2022-12-01T03:17:03;21.42;;;16.52;;
18407;SDS011;9330;52.210;21.174;2022-12-01T03:19:34;23.92;;;16.90;;
18407;SDS011;9330;52.210;21.174;2022-12-01T03:22:07;23.52;;;17.40;;
18407;SDS011;9330;52.210;21.174;2022-12-01T03:24:38;23.08;;;17.42;;
18407;SDS011;9330;52.210;21.174;2022-12-01T03:27:07;21.83;;;16.95;;
18407;SDS011;9330;52.210;21.174;2022-12-01T03:29:39;22.65;;;17.50;;
18407;SDS011;9330;52.210;21.174;2022-12-01T03:32:11;21.55;;;16.85;;
18407;SDS011;9330;52.210;21.174;2022-12-01T03:34:44;22.48;;;16.45;;
18407;SDS011;9330;52.210;21.174;2022-12-01T03:37:16;22.17;;;16.35;;
18407;SDS011;9330;52.210;21.174;2022-12-01T03:39:48;21.52;;;16.27;;
18407;SDS011;9330;52.210;21.174;2022-12-01T03:42:21;22.10;;;16.77;;
18407;SDS011;9330;52.210;21.174;2022-12-01T03:44:52;22.63;;;15.95;;
18407;SDS011;9330;52.210;21.174;2022-12-01T03:47:24;20.65;;;16.08;;
18407;SDS011;9330;52.210;21.174;2022-12-01T03:49:56;22.15;;;16.23;;
18407;SDS011;9330;52.210;21.174;2022-12-01T03:52:28;22.45;;;16.60;;
18407;SDS011;9330;52.210;21.174;2022-12-01T03:55:06;21.42;;;16.50;;
18407;SDS011;9330;52.210;21.174;2022-12-01T03:57:38;24.33;;;17.83;;
18407;SDS011;9330;52.210;21.174;2022-12-01T04:00:10;24.20;;;17.05;;
18407;SDS011;9330;52.210;21.174;2022-12-01T04:02:40;22.60;;;17.17;;
18407;SDS011;9330;52.210;21.174;2022-12-01T04:18:18;21.17;;;16.27;;
18407;SDS011;9330;52.210;21.174;2022-12-01T04:20:46;20.45;;;15.27;;
18407;SDS011;9330;52.210;21.174;2022-12-01T04:23:14;22.50;;;17.02;;
18407;SDS011;9330;52.210;21.174;2022-12-01T04:25:56;24.95;;;17.15;;
18407;SDS011;9330;52.210;21.174;2022-12-01T04:28:24;21.73;;;17.08;;
18407;SDS011;9330;52.210;21.174;2022-12-01T04:30:51;23.75;;;17.08;;
18407;SDS011;9330;52.210;21.174;2022-12-01T04:33:20;26.10;;;18.52;;
18407;SDS011;9330;52.210;21.174;2022-12-01T04:35:54;20.23;;;15.85;;
18407;SDS011;9330;52.210;21.174;2022-12-01T04:38:22;21.35;;;15.73;;
18407;SDS011;9330;52.210;21.174;2022-12-01T04:40:49;22.85;;;17.52;;
18407;SDS011;9330;52.210;21.174;2022-12-01T04:43:16;21.80;;;16.52;;
18407;SDS011;9330;52.210;21.174;2022-12-01T04:45:43;24.30;;;17.13;;
18407;SDS011;9330;52.210;21.174;2022-12-01T04:48:10;19.58;;;15.48;;
18407;SDS011;9330;52.210;21.174;2022-12-01T04:50:39;23.60;;;17.85;;
18407;SDS011;9330;52.210;21.174;2022-12-01T04:53:06;23.65;;;17.92;;
18407;SDS011;9330;52.210;21.174;2022-12-01T04:55:35;22.98;;;17.10;;
18407;SDS011;9330;52.210;21.174;2022-12-01T04:58:03;23.60;;;17.75;;
18407;SDS011;9330;52.210;21.174;2022-12-01T05:00:30;22.30;;;16.58;;
18407;SDS011;9330;52.210;21.174;2022-12-01T05:02:57;24.08;;;16.90;;
18407;SDS011;9330;52.210;21.174;2022-12-01T05:05:25;21.23;;;16.38;;
18407;SDS011;9330;52.210;21.174;2022-12-01T05:07:53;24.98;;;17.38;;
18407;SDS011;9330;52.210;21.174;2022-12-01T05:10:20;21.48;;;16.08;;
18407;SDS011;9330;52.210;21.174;2022-12-01T05:12:47;19.50;;;15.35;;
18407;SDS011;9330;52.210;21.174;2022-12-01T05:15:14;19.10;;;14.85;;
18407;SDS011;9330;52.210;21.174;2022-12-01T05:17:42;21.00;;;15.63;;
18407;SDS011;9330;52.210;21.174;2022-12-01T05:20:09;18.73;;;14.60;;
18407;SDS011;9330;52.210;21.174;2022-12-01T05:23:06;19.08;;;14.70;;
18407;SDS011;9330;52.210;21.174;2022-12-01T05:25:33;17.60;;;13.93;;
18407;SDS011;9330;52.210;21.174;2022-12-01T05:28:01;15.93;;;13.50;;
18407;SDS011;9330;52.210;21.174;2022-12-01T05:30:28;16.33;;;13.52;;
18407;SDS011;9330;52.210;21.174;2022-12-01T05:32:55;15.55;;;13.23;;
18407;SDS011;9330;52.210;21.174;2022-12-01T05:35:22;15.73;;;12.60;;
18407;SDS011;9330;52.210;21.174;2022-12-01T05:37:49;16.60;;;13.68;;
18407;SDS011;9330;52.210;21.174;2022-12-01T05:40:18;14.98;;;12.60;;
18407;SDS011;9330;52.210;21.174;2022-12-01T05:42:46;15.93;;;13.25;;
18407;SDS011;9330;52.210;21.174;2022-12-01T05:45:13;16.10;;;12.88;;
18407;SDS011;9330;52.210;21.174;2022-12-01T05:47:40;15.70;;;13.07;;
18407;SDS011;9330;52.210;21.174;2022-12-01T05:50:08;17.15;;;13.07;;
18407;SDS011;9330;52.210;21.174;2022-12-01T05:52:35;17.75;;;13.75;;
18407;SDS011;9330;52.210;21.174;2022-12-01T05:55:03;16.75;;;13.25;;
18407;SDS011;9330;52.210;21.174;2022-12-01T05:57:32;15.85;;;12.63;;
18407;SDS011;9330;52.210;21.174;2022-12-01T05:59:59;17.13;;;13.65;;
18407;SDS011;9330;52.210;21.174;2022-12-01T06:02:26;18.83;;;14.35;;
18407;SDS011;9330;52.210;21.174;2022-12-01T06:04:53;16.25;;;12.95;;
18407;SDS011;9330;52.210;21.174;2022-12-01T06:07:20;14.82;;;13.00;;
18407;SDS011;9330;52.210;21.174;2022-12-01T06:09:50;15.63;;;13.02;;
18407;SDS011;9330;52.210;21.174;2022-12-01T06:12:17;16.35;;;13.48;;
18407;SDS011;9330;52.210;21.174;2022-12-01T06:14:45;15.50;;;13.20;;
18407;SDS011;9330;52.210;21.174;2022-12-01T06:17:12;16.02;;;12.52;;
18407;SDS011;9330;52.210;21.174;2022-12-01T06:19:39;16.23;;;13.95;;
18407;SDS011;9330;52.210;21.174;2022-12-01T06:22:07;16.38;;;12.65;;
18407;SDS011;9330;52.210;21.174;2022-12-01T06:24:34;15.80;;;12.75;;
18407;SDS011;9330;52.210;21.174;2022-12-01T06:27:01;15.68;;;13.20;;
18407;SDS011;9330;52.210;21.174;2022-12-01T06:29:28;15.50;;;12.82;;
18407;SDS011;9330;52.210;21.174;2022-12-01T06:31:57;15.10;;;12.20;;
18407;SDS011;9330;52.210;21.174;2022-12-01T06:34:24;14.95;;;12.38;;
18407;SDS011;9330;52.210;21.174;2022-12-01T06:36:51;14.75;;;13.02;;
18407;SDS011;9330;52.210;21.174;2022-12-01T06:39:18;17.90;;;13.23;;
18407;SDS011;9330;52.210;21.174;2022-12-01T06:41:45;17.45;;;13.45;;
18407;SDS011;9330;52.210;21.174;2022-12-01T06:44:12;14.23;;;11.73;;
18407;SDS011;9330;52.210;21.174;2022-12-01T06:46:39;16.27;;;12.73;;
18407;SDS011;9330;52.210;21.174;2022-12-01T06:49:10;17.98;;;13.02;;
18407;SDS011;9330;52.210;21.174;2022-12-01T06:51:37;17.55;;;13.68;;
18407;SDS011;9330;52.210;21.174;2022-12-01T06:54:04;16.42;;;13.25;;
18407;SDS011;9330;52.210;21.174;2022-12-01T06:56:31;16.52;;;13.05;;
18407;SDS011;9330;52.210;21.174;2022-12-01T06:58:58;18.40;;;14.68;;
18407;SDS011;9330;52.210;21.174;2022-12-01T07:01:25;19.02;;;13.50;;
18407;SDS011;9330;52.210;21.174;2022-12-01T07:03:52;17.40;;;13.45;;
18407;SDS011;9330;52.210;21.174;2022-12-01T07:06:21;16.45;;;13.25;;
18407;SDS011;9330;52.210;21.174;2022-12-01T07:08:48;19.40;;;14.70;;
18407;SDS011;9330;52.210;21.174;2022-12-01T07:11:15;18.80;;;13.90;;
18407;SDS011;9330;52.210;21.174;2022-12-01T07:13:42;16.25;;;13.23;;
18407;SDS011;9330;52.210;21.174;2022-12-01T07:16:10;17.00;;;14.05;;
18407;SDS011;9330;52.210;21.174;2022-12-01T07:18:38;20.70;;;15.45;;
18407;SDS011;9330;52.210;21.174;2022-12-01T07:21:06;18.58;;;14.57;;
18407;SDS011;9330;52.210;21.174;2022-12-01T07:23:37;17.98;;;14.77;;
18407;SDS011;9330;52.210;21.174;2022-12-01T07:26:04;21.25;;;15.20;;
18407;SDS011;9330;52.210;21.174;2022-12-01T07:28:32;18.77;;;14.10;;
18407;SDS011;9330;52.210;21.174;2022-12-01T07:31:00;17.05;;;13.88;;
18407;SDS011;9330;52.210;21.174;2022-12-01T07:33:28;21.70;;;14.40;;
18407;SDS011;9330;52.210;21.174;2022-12-01T07:35:56;20.02;;;14.65;;
18407;SDS011;9330;52.210;21.174;2022-12-01T07:38:23;19.92;;;14.65;;
18407;SDS011;9330;52.210;21.174;2022-12-01T07:40:51;18.20;;;14.13;;
18407;SDS011;9330;52.210;21.174;2022-12-01T07:43:18;19.35;;;14.63;;
18407;SDS011;9330;52.210;21.174;2022-12-01T07:45:45;19.95;;;15.15;;
18407;SDS011;9330;52.210;21.174;2022-12-01T07:48:12;22.05;;;16.75;;
18407;SDS011;9330;52.210;21.174;2022-12-01T07:50:39;25.98;;;16.27;;
18407;SDS011;9330;52.210;21.174;2022-12-01T07:53:05;19.55;;;14.95;;
18407;SDS011;9330;52.210;21.174;2022-12-01T07:55:32;20.92;;;15.95;;
18407;SDS011;9330;52.210;21.174;2022-12-01T07:58:01;20.52;;;16.20;;
18407;SDS011;9330;52.210;21.174;2022-12-01T08:00:28;19.70;;;15.55;;
18407;SDS011;9330;52.210;21.174;2022-12-01T08:02:55;21.33;;;14.95;;
18407;SDS011;9330;52.210;21.174;2022-12-01T08:05:21;21.05;;;15.57;;
18407;SDS011;9330;52.210;21.174;2022-12-01T08:07:48;22.23;;;16.95;;
18407;SDS011;9330;52.210;21.174;2022-12-01T08:10:15;20.02;;;14.75;;
18407;SDS011;9330;52.210;21.174;2022-12-01T08:12:42;21.58;;;15.70;;
18407;SDS011;9330;52.210;21.174;2022-12-01T08:15:13;20.70;;;16.20;;
18407;SDS011;9330;52.210;21.174;2022-12-01T08:17:40;18.70;;;14.63;;
18407;SDS011;9330;52.210;21.174;2022-12-01T08:20:07;20.42;;;14.45;;
18407;SDS011;9330;52.210;21.174;2022-12-01T08:22:36;19.98;;;15.23;;
18407;SDS011;9330;52.210;21.174;2022-12-01T08:25:03;20.52;;;15.25;;
18407;SDS011;9330;52.210;21.174;2022-12-01T08:27:31;21.08;;;15.65;;
18407;SDS011;9330;52.210;21.174;2022-12-01T08:29:58;20.10;;;15.32;;
18407;SDS011;9330;52.210;21.174;2022-12-01T08:32:26;19.00;;;14.77;;
18407;SDS011;9330;52.210;21.174;2022-12-01T08:34:54;20.98;;;15.63;;
18407;SDS011;9330;52.210;21.174;2022-12-01T08:37:21;20.63;;;14.90;;
18407;SDS011;9330;52.210;21.174;2022-12-01T08:39:48;22.58;;;15.55;;
18407;SDS011;9330;52.210;21.174;2022-12-01T08:42:15;21.50;;;16.25;;
18407;SDS011;9330;52.210;21.174;2022-12-01T08:44:41;19.58;;;14.27;;
18407;SDS011;9330;52.210;21.174;2022-12-01T08:47:08;19.45;;;14.40;;
18407;SDS011;9330;52.210;21.174;2022-12-01T08:49:37;20.27;;;13.85;;
18407;SDS011;9330;52.210;21.174;2022-12-01T08:52:03;20.23;;;14.27;;
18407;SDS011;9330;52.210;21.174;2022-12-01T08:54:30;20.23;;;15.13;;
18407;SDS011;9330;52.210;21.174;2022-12-01T08:56:57;19.45;;;14.10;;
18407;SDS011;9330;52.210;21.174;2022-12-01T08:59:24;19.30;;;14.30;;
18407;SDS011;9330;52.210;21.174;2022-12-01T09:01:51;20.85;;;15.00;;
18407;SDS011;9330;52.210;21.174;2022-12-01T09:04:18;22.25;;;16.08;;
18407;SDS011;9330;52.210;21.174;2022-12-01T09:06:48;18.13;;;14.30;;
18407;SDS011;9330;52.210;21.174;2022-12-01T09:09:17;19.55;;;14.68;;
18407;SDS011;9330;52.210;21.174;2022-12-01T09:11:45;18.35;;;13.65;;
18407;SDS011;9330;52.210;21.174;2022-12-01T09:14:13;23.27;;;16.10;;
18407;SDS011;9330;52.210;21.174;2022-12-01T09:16:42;20.77;;;15.32;;
18407;SDS011;9330;52.210;21.174;2022-12-01T09:19:10;19.02;;;14.30;;
18407;SDS011;9330;52.210;21.174;2022-12-01T09:21:37;18.75;;;14.90;;
18407;SDS011;9330;52.210;21.174;2022-12-01T09:24:06;20.60;;;15.00;;
18407;SDS011;9330;52.210;21.174;2022-12-01T09:26:35;23.73;;;16.48;;
18407;SDS011;9330;52.210;21.174;2022-12-01T09:29:03;22.15;;;16.02;;
18407;SDS011;9330;52.210;21.174;2022-12-01T09:31:31;22.88;;;15.52;;
18407;SDS011;9330;52.210;21.174;2022-12-01T09:34:00;23.65;;;16.45;;
18407;SDS011;9330;52.210;21.174;2022-12-01T09:36:28;22.70;;;16.25;;
18407;SDS011;9330;52.210;21.174;2022-12-01T09:38:55;21.60;;;15.20;;
18407;SDS011;9330;52.210;21.174;2022-12-01T09:41:25;22.40;;;15.15;;
18407;SDS011;9330;52.210;21.174;2022-12-01T09:43:58;24.95;;;17.83;;
18407;SDS011;9330;52.210;21.174;2022-12-01T09:46:31;24.05;;;18.02;;
18407;SDS011;9330;52.210;21.174;2022-12-01T09:49:02;24.35;;;18.40;;
18407;SDS011;9330;52.210;21.174;2022-12-01T09:51:31;25.40;;;18.30;;
18407;SDS011;9330;52.210;21.174;2022-12-01T09:54:00;28.42;;;19.80;;
18407;SDS011;9330;52.210;21.174;2022-12-01T09:56:31;28.40;;;19.05;;
18407;SDS011;9330;52.210;21.174;2022-12-01T09:59:07;24.67;;;18.42;;
18407;SDS011;9330;52.210;21.174;2022-12-01T10:01:43;28.35;;;19.17;;
18407;SDS011;9330;52.210;21.174;2022-12-01T10:04:14;25.75;;;18.80;;
18407;SDS011;9330;52.210;21.174;2022-12-01T10:06:47;26.90;;;18.90;;
18407;SDS011;9330;52.210;21.174;2022-12-01T10:09:19;29.08;;;20.58;;
18407;SDS011;9330;52.210;21.174;2022-12-01T10:11:51;30.17;;;20.88;;
18407;SDS011;9330;52.210;21.174;2022-12-01T10:14:23;30.13;;;20.95;;
18407;SDS011;9330;52.210;21.174;2022-12-01T10:16:53;37.70;;;23.38;;
18407;SDS011;9330;52.210;21.174;2022-12-01T10:19:28;37.97;;;24.92;;
18407;SDS011;9330;52.210;21.174;2022-12-01T10:22:06;40.22;;;26.00;;
18407;SDS011;9330;52.210;21.174;2022-12-01T10:24:59;41.60;;;26.45;;
18407;SDS011;9330;52.210;21.174;2022-12-01T10:27:39;41.40;;;25.80;;
18407;SDS011;9330;52.210;21.174;2022-12-01T10:30:13;46.17;;;27.90;;
18407;SDS011;9330;52.210;21.174;2022-12-01T10:32:44;44.38;;;27.48;;
18407;SDS011;9330;52.210;21.174;2022-12-01T10:35:18;46.88;;;29.48;;
18407;SDS011;9330;52.210;21.174;2022-12-01T10:37:48;45.45;;;27.88;;
18407;SDS011;9330;52.210;21.174;2022-12-01T10:40:19;49.85;;;28.92;;
18407;SDS011;9330;52.210;21.174;2022-12-01T10:42:49;46.75;;;28.58;;
18407;SDS011;9330;52.210;21.174;2022-12-01T10:45:17;52.35;;;31.75;;
18407;SDS011;9330;52.210;21.174;2022-12-01T10:48:07;48.35;;;28.90;;
18407;SDS011;9330;52.210;21.174;2022-12-01T10:50:37;50.30;;;29.60;;
18407;SDS011;9330;52.210;21.174;2022-12-01T10:53:11;52.25;;;29.60;;
18407;SDS011;9330;52.210;21.174;2022-12-01T10:55:56;47.13;;;27.90;;
18407;SDS011;9330;52.210;21.174;2022-12-01T10:58:28;43.63;;;26.75;;
18407;SDS011;9330;52.210;21.174;2022-12-01T11:00:58;42.65;;;25.42;;
18407;SDS011;9330;52.210;21.174;2022-12-01T11:03:27;41.25;;;25.50;;
18407;SDS011;9330;52.210;21.174;2022-12-01T11:05:57;40.88;;;25.67;;
18407;SDS011;9330;52.210;21.174;2022-12-01T11:08:29;43.15;;;26.13;;
18407;SDS011;9330;52.210;21.174;2022-12-01T11:11:04;43.50;;;26.10;;
18407;SDS011;9330;52.210;21.174;2022-12-01T11:13:34;48.90;;;26.45;;
18407;SDS011;9330;52.210;21.174;2022-12-01T11:16:02;46.65;;;26.75;;
18407;SDS011;9330;52.210;21.174;2022-12-01T11:18:32;42.65;;;25.65;;
18407;SDS011;9330;52.210;21.174;2022-12-01T11:21:05;44.25;;;25.92;;
18407;SDS011;9330;52.210;21.174;2022-12-01T11:23:34;51.40;;;27.60;;
18407;SDS011;9330;52.210;21.174;2022-12-01T11:26:10;42.15;;;24.27;;
18407;SDS011;9330;52.210;21.174;2022-12-01T11:28:48;39.90;;;24.50;;
18407;SDS011;9330;52.210;21.174;2022-12-01T11:31:17;39.90;;;24.02;;
18407;SDS011;9330;52.210;21.174;2022-12-01T11:33:46;37.00;;;23.13;;
18407;SDS011;9330;52.210;21.174;2022-12-01T11:36:24;40.85;;;23.83;;
18407;SDS011;9330;52.210;21.174;2022-12-01T11:38:54;38.05;;;23.13;;
18407;SDS011;9330;52.210;21.174;2022-12-01T11:41:27;40.38;;;23.98;;
18407;SDS011;9330;52.210;21.174;2022-12-01T11:44:00;46.60;;;26.10;;
18407;SDS011;9330;52.210;21.174;2022-12-01T11:46:29;44.85;;;25.50;;
18407;SDS011;9330;52.210;21.174;2022-12-01T11:48:59;42.85;;;24.95;;
18407;SDS011;9330;52.210;21.174;2022-12-01T11:51:28;39.13;;;23.52;;
18407;SDS011;9330;52.210;21.174;2022-12-01T11:54:05;45.75;;;26.23;;
18407;SDS011;9330;52.210;21.174;2022-12-01T11:56:42;41.47;;;24.27;;
18407;SDS011;9330;52.210;21.174;2022-12-01T11:59:12;40.83;;;24.38;;
18407;SDS011;9330;52.210;21.174;2022-12-01T12:01:46;40.58;;;24.13;;
18407;SDS011;9330;52.210;21.174;2022-12-01T12:07:29;42.42;;;23.20;;
18407;SDS011;9330;52.210;21.174;2022-12-01T12:10:10;41.00;;;24.08;;
18407;SDS011;9330;52.210;21.174;2022-12-01T12:12:53;37.10;;;22.10;;
18407;SDS011;9330;52.210;21.174;2022-12-01T12:15:31;35.50;;;22.23;;
18407;SDS011;9330;52.210;21.174;2022-12-01T12:21:10;33.97;;;20.73;;
18407;SDS011;9330;52.210;21.174;2022-12-01T12:26:46;38.80;;;21.33;;
18407;SDS011;9330;52.210;21.174;2022-12-01T12:29:22;30.58;;;19.45;;
18407;SDS011;9330;52.210;21.174;2022-12-01T12:32:17;26.42;;;17.52;;
18407;SDS011;9330;52.210;21.174;2022-12-01T12:35:01;24.35;;;16.35;;
18407;SDS011;9330;52.210;21.174;2022-12-01T12:37:38;26.58;;;16.75;;
18407;SDS011;9330;52.210;21.174;2022-12-01T12:40:18;27.67;;;16.95;;
18407;SDS011;9330;52.210;21.174;2022-12-01T12:42:57;23.35;;;15.00;;
18407;SDS011;9330;52.210;21.174;2022-12-01T12:48:27;19.88;;;13.27;;
18407;SDS011;9330;52.210;21.174;2022-12-01T12:51:10;18.05;;;11.98;;
18407;SDS011;9330;52.210;21.174;2022-12-01T12:53:41;15.98;;;11.50;;
18407;SDS011;9330;52.210;21.174;2022-12-01T12:56:13;16.70;;;10.88;;
18407;SDS011;9330;52.210;21.174;2022-12-01T12:58:51;14.15;;;9.90;;
18407;SDS011;9330;52.210;21.174;2022-12-01T13:01:22;15.85;;;10.27;;
18407;SDS011;9330;52.210;21.174;2022-12-01T13:03:54;13.82;;;9.02;;
18407;SDS011;9330;52.210;21.174;2022-12-01T13:06:24;13.82;;;9.05;;
18407;SDS011;9330;52.210;21.174;2022-12-01T13:08:56;15.65;;;9.07;;
18407;SDS011;9330;52.210;21.174;2022-12-01T13:11:28;16.15;;;9.85;;
18407;SDS011;9330;52.210;21.174;2022-12-01T13:14:00;17.50;;;9.80;;
18407;SDS011;9330;52.210;21.174;2022-12-01T13:16:31;15.45;;;9.45;;
18407;SDS011;9330;52.210;21.174;2022-12-01T13:19:04;15.90;;;9.48;;
18407;SDS011;9330;52.210;21.174;2022-12-01T13:21:38;15.98;;;10.13;;
18407;SDS011;9330;52.210;21.174;2022-12-01T13:24:08;14.75;;;9.75;;
18407;SDS011;9330;52.210;21.174;2022-12-01T13:26:37;14.82;;;9.88;;
18407;SDS011;9330;52.210;21.174;2022-12-01T13:29:06;12.43;;;9.40;;
18407;SDS011;9330;52.210;21.174;2022-12-01T13:31:40;13.43;;;8.77;;
18407;SDS011;9330;52.210;21.174;2022-12-01T13:34:17;13.57;;;9.73;;
18407;SDS011;9330;52.210;21.174;2022-12-01T13:36:47;10.70;;;8.10;;
18407;SDS011;9330;52.210;21.174;2022-12-01T13:39:16;11.57;;;8.18;;
18407;SDS011;9330;52.210;21.174;2022-12-01T13:41:45;9.88;;;7.10;;
18407;SDS011;9330;52.210;21.174;2022-12-01T13:44:27;10.85;;;7.15;;
18407;SDS011;9330;52.210;21.174;2022-12-01T13:46:57;12.73;;;8.52;;
18407;SDS011;9330;52.210;21.174;2022-12-01T13:49:33;11.90;;;7.78;;
18407;SDS011;9330;52.210;21.174;2022-12-01T13:55:02;10.32;;;7.88;;
18407;SDS011;9330;52.210;21.174;2022-12-01T14:00:43;9.55;;;6.90;;
18407;SDS011;9330;52.210;21.174;2022-12-01T14:06:06;14.75;;;9.60;;
18407;SDS011;9330;52.210;21.174;2022-12-01T14:08:48;13.63;;;9.63;;
18407;SDS011;9330;52.210;21.174;2022-12-01T14:11:18;13.45;;;9.18;;
18407;SDS011;9330;52.210;21.174;2022-12-01T14:13:49;12.07;;;9.35;;
18407;SDS011;9330;52.210;21.174;2022-12-01T14:16:19;13.02;;;9.38;;
18407;SDS011;9330;52.210;21.174;2022-12-01T14:18:50;13.00;;;9.65;;
18407;SDS011;9330;52.210;21.174;2022-12-01T14:24:14;14.18;;;9.93;;
18407;SDS011;9330;52.210;21.174;2022-12-01T14:26:46;12.52;;;9.32;;
18407;SDS011;9330;52.210;21.174;2022-12-01T14:29:22;12.38;;;8.48;;
18407;SDS011;9330;52.210;21.174;2022-12-01T14:34:52;12.95;;;8.85;;
18407;SDS011;9330;52.210;21.174;2022-12-01T14:37:44;12.02;;;9.32;;
18407;SDS011;9330;52.210;21.174;2022-12-01T14:40:18;14.40;;;10.15;;
18407;SDS011;9330;52.210;21.174;2022-12-01T14:42:50;14.75;;;9.63;;
18407;SDS011;9330;52.210;21.174;2022-12-01T14:45:40;13.75;;;9.48;;
18407;SDS011;9330;52.210;21.174;2022-12-01T14:48:17;12.57;;;9.13;;
18407;SDS011;9330;52.210;21.174;2022-12-01T14:50:50;13.70;;;10.48;;
18407;SDS011;9330;52.210;21.174;2022-12-01T14:53:22;13.05;;;9.27;;
18407;SDS011;9330;52.210;21.174;2022-12-01T14:55:52;14.45;;;12.00;;
18407;SDS011;9330;52.210;21.174;2022-12-01T14:58:22;14.45;;;9.73;;
18407;SDS011;9330;52.210;21.174;2022-12-01T15:00:56;13.35;;;9.50;;
18407;SDS011;9330;52.210;21.174;2022-12-01T15:03:28;13.85;;;9.70;;
18407;SDS011;9330;52.210;21.174;2022-12-01T15:06:00;18.30;;;12.68;;
18407;SDS011;9330;52.210;21.174;2022-12-01T15:08:29;14.07;;;10.10;;
18407;SDS011;9330;52.210;21.174;2022-12-01T15:10:58;18.02;;;13.02;;
18407;SDS011;9330;52.210;21.174;2022-12-01T15:13:27;14.27;;;10.40;;
18407;SDS011;9330;52.210;21.174;2022-12-01T15:15:56;11.43;;;8.85;;
18407;SDS011;9330;52.210;21.174;2022-12-01T15:18:26;15.68;;;11.05;;
18407;SDS011;9330;52.210;21.174;2022-12-01T15:20:55;16.88;;;11.77;;
18407;SDS011;9330;52.210;21.174;2022-12-01T15:23:26;18.60;;;13.60;;
18407;SDS011;9330;52.210;21.174;2022-12-01T15:25:54;17.23;;;12.88;;